.
WxDataArchive / Data Records for 2015-10-03
2015-10-02 October 2015 2015-10-04

Data Records for Saturday, 03 October 2015

Time	Temp	Chill	HIndex	Humid	Dewpt	 Wind 	HiWind	WindDir	Rain 	Barom
-----	----	-----	------	-----	-----	------	------	-------	-----	-----
00:00	48.2	48.2	48.2	70	38.9	1	7	90	0.01	30.206 
00:05	47.9	47.9	47.9	71	39.0	2	7	90	0.00	30.206 
00:10	47.7	47.7	47.7	73	39.5	1	6	112	0.00	30.206 
00:15	47.6	47.6	47.6	74	39.7	1	6	112	0.00	30.202 
00:20	47.4	47.4	47.4	74	39.5	1	6	112	0.00	30.202 
00:25	47.3	47.3	47.3	73	39.1	1	6	112	0.00	30.202 
00:30	47.3	47.3	47.3	73	39.1	1	5	90	0.00	30.195 
00:35	47.4	47.4	47.4	71	38.5	2	10	90	0.00	30.195 
00:40	47.6	47.6	47.6	70	38.3	2	7	90	0.00	30.195 
00:45	47.7	47.7	47.7	70	38.4	2	7	112	0.00	30.191 
00:50	47.9	47.9	47.9	70	38.6	2	10	68	0.00	30.191 
00:55	47.9	47.9	47.9	70	38.6	1	5	68	0.00	30.191 
01:00	47.9	47.9	47.9	70	38.6	2	7	90	0.00	30.180 
01:05	47.9	47.9	47.9	69	38.2	2	7	90	0.00	30.180 
01:10	48.0	48.0	48.0	70	38.7	2	10	90	0.00	30.180 
01:15	48.0	48.0	48.0	70	38.7	2	5	112	0.00	30.175 
01:20	48.0	48.0	48.0	69	38.3	2	11	90	0.00	30.175 
01:25	48.0	48.0	48.0	68	37.9	2	9	90	0.00	30.175 
01:30	48.2	48.2	48.2	68	38.1	2	6	90	0.00	30.165 
01:35	48.2	48.2	48.2	68	38.1	2	7	112	0.00	30.165 
01:40	48.3	48.3	48.3	68	38.2	2	7	90	0.00	30.165 
01:45	48.3	48.3	48.3	69	38.6	1	5	90	0.00	30.160 
01:50	48.3	48.3	48.3	68	38.2	1	8	68	0.00	30.160 
01:55	48.5	48.5	48.5	67	38.0	2	11	90	0.00	30.160 
02:00	48.5	48.5	48.5	67	38.0	1	9	90	0.00	30.157 
02:05	48.5	48.5	48.5	67	38.0	1	6	68	0.00	30.157 
02:10	48.6	48.6	48.6	67	38.1	1	6	90	0.00	30.157 
02:15	48.6	48.6	48.6	66	37.8	2	7	90	0.00	30.156 
02:20	48.6	48.6	48.6	66	37.8	2	9	90	0.00	30.156 
02:25	48.8	48.8	48.8	65	37.6	3	11	90	0.00	30.156 
02:30	48.8	48.8	48.8	66	38.0	2	9	90	0.00	30.158 
02:35	48.9	48.9	48.9	65	37.7	2	10	90	0.00	30.158 
02:40	48.9	48.9	48.9	65	37.7	3	12	68	0.00	30.158 
02:45	49.1	49.1	49.1	65	37.8	2	9	112	0.00	30.157 
02:50	49.1	49.1	49.1	65	37.8	3	9	90	0.00	30.157 
02:55	49.1	49.1	49.1	65	37.8	2	9	112	0.00	30.157 
03:00	49.2	49.2	49.2	65	37.9	3	7	90	0.00	30.158 
03:05	49.2	49.2	49.2	64	37.5	2	9	90	0.00	30.158 
03:10	49.2	49.2	49.2	65	37.9	2	7	90	0.00	30.158 
03:15	49.2	49.2	49.2	65	37.9	3	11	90	0.00	30.158 
03:20	49.2	49.2	49.2	65	37.9	3	10	112	0.00	30.158 
03:25	49.4	49.4	49.4	64	37.7	1	6	90	0.00	30.158 
03:30	49.4	49.4	49.4	64	37.7	2	6	90	0.00	30.155 
03:35	49.2	49.2	49.2	64	37.5	2	9	90	0.00	30.155 
03:40	49.2	49.2	49.2	63	37.1	3	9	90	0.00	30.155 
03:45	49.2	49.2	49.2	63	37.1	2	9	68	0.00	30.146 
03:50	49.2	49.2	49.2	64	37.5	2	13	68	0.00	30.146 
03:55	49.2	49.2	49.2	65	37.9	2	7	90	0.00	30.146 
04:00	49.1	49.1	49.1	64	37.5	3	7	90	0.00	30.144 
04:05	49.1	49.1	49.1	65	37.8	2	7	112	0.00	30.144 
04:10	49.1	49.1	49.1	65	37.8	2	7	90	0.00	30.144 
04:15	48.9	48.9	48.9	64	37.3	2	9	90	0.00	30.143 
04:20	48.9	48.9	48.9	65	37.7	2	9	112	0.00	30.143 
04:25	48.9	48.9	48.9	65	37.7	2	11	112	0.00	30.143 
04:30	48.9	48.9	48.9	65	37.7	2	11	90	0.00	30.135 
04:35	48.9	48.9	48.9	65	37.7	3	12	90	0.00	30.135 
04:40	48.9	48.9	48.9	65	37.7	2	5	90	0.00	30.135 
04:45	48.9	48.9	48.9	65	37.7	2	12	90	0.00	30.127 
04:50	48.9	48.9	48.9	66	38.0	2	9	112	0.00	30.127 
04:55	48.9	48.9	48.9	65	37.7	2	8	68	0.00	30.127 
05:00	48.9	48.9	48.9	65	37.7	2	9	90	0.00	30.116 
05:05	48.9	48.9	48.9	65	37.7	2	7	90	0.00	30.116 
05:10	49.1	49.1	49.1	64	37.5	2	9	90	0.00	30.116 
05:15	49.1	49.1	49.1	64	37.5	2	10	112	0.00	30.115 
05:20	49.1	49.1	49.1	64	37.5	2	7	68	0.00	30.115 
05:25	49.1	49.1	49.1	65	37.8	2	9	90	0.00	30.115 
05:30	49.1	49.1	49.1	64	37.5	3	9	90	0.00	30.116 
05:35	49.1	49.1	49.1	64	37.5	2	11	112	0.00	30.116 
05:40	48.9	48.9	48.9	64	37.3	2	6	90	0.00	30.116 
05:45	48.9	48.9	48.9	64	37.3	2	9	112	0.00	30.108 
05:50	48.9	48.9	48.9	64	37.3	3	7	90	0.00	30.108 
05:55	48.9	48.9	48.9	64	37.3	3	10	68	0.00	30.108 
06:00	48.9	48.9	48.9	64	37.3	2	7	22	0.00	30.110 
06:05	48.9	48.9	48.9	64	37.3	2	7	90	0.00	30.110 
06:10	48.8	48.8	48.8	64	37.2	2	10	90	0.00	30.110 
06:15	48.8	48.8	48.8	64	37.2	3	15	112	0.00	30.110 
06:20	48.8	47.5	48.8	64	37.2	4	11	90	0.00	30.110 
06:25	48.8	48.8	48.8	64	37.2	3	11	112	0.00	30.110 
06:30	48.8	48.8	48.8	64	37.2	3	12	112	0.00	30.106 
06:35	48.8	47.5	48.8	64	37.2	4	12	90	0.00	30.106 
06:40	48.8	48.8	48.8	64	37.2	2	7	90	0.00	30.106 
06:45	48.8	48.8	48.8	64	37.2	2	6	90	0.00	30.107 
06:50	48.8	48.8	48.8	64	37.2	2	7	68	0.00	30.107 
06:55	48.8	48.8	48.8	64	37.2	3	10	90	0.00	30.107 
07:00	48.8	48.8	48.8	64	37.2	2	10	90	0.00	30.099 
07:05	48.8	48.8	48.8	64	37.2	3	11	112	0.00	30.099 
07:10	48.6	48.6	48.6	64	37.0	3	12	90	0.00	30.099 
07:15	48.6	48.6	48.6	65	37.4	2	11	112	0.00	30.101 
07:20	48.6	48.6	48.6	64	37.0	3	9	112	0.00	30.101 
07:25	48.6	48.6	48.6	65	37.4	3	12	90	0.00	30.101 
07:30	48.6	48.6	48.6	64	37.0	3	15	90	0.00	30.099 
07:35	48.6	48.6	48.6	65	37.4	1	5	90	0.00	30.099 
07:40	48.5	48.5	48.5	65	37.3	3	9	90	0.00	30.099 
07:45	48.5	48.5	48.5	65	37.3	3	11	90	0.00	30.113 
07:50	48.5	48.5	48.5	65	37.3	2	8	90	0.00	30.113 
07:55	48.5	48.5	48.5	65	37.3	2	6	90	0.00	30.113 
08:00	48.5	48.5	48.5	65	37.3	2	7	112	0.00	30.114 
08:05	48.5	48.5	48.5	65	37.3	2	8	90	0.00	30.114 
08:10	48.5	48.5	48.5	65	37.3	3	10	112	0.00	30.114 
08:15	48.5	48.5	48.5	65	37.3	2	10	112	0.00	30.117 
08:20	48.5	48.5	48.5	66	37.7	2	5	90	0.00	30.117 
08:25	48.3	48.3	48.3	65	37.1	2	7	112	0.00	30.117 
08:30	48.5	48.5	48.5	66	37.7	3	9	112	0.00	30.124 
08:35	48.3	48.3	48.3	65	37.1	2	7	90	0.00	30.124 
08:40	48.5	48.5	48.5	66	37.7	2	12	112	0.00	30.124 
08:45	48.5	48.5	48.5	66	37.7	2	11	112	0.00	30.119 
08:50	48.3	48.3	48.3	65	37.1	3	11	112	0.00	30.119 
08:55	48.3	46.9	48.3	65	37.1	4	11	90	0.00	30.119 
09:00	48.3	48.3	48.3	66	37.5	2	6	90	0.00	30.125 
09:05	48.3	46.9	48.3	66	37.5	4	9	112	0.00	30.125 
09:10	48.3	48.3	48.3	65	37.1	2	11	90	0.00	30.125 
09:15	48.3	48.3	48.3	65	37.1	2	10	90	0.00	30.125 
09:20	48.5	48.5	48.5	65	37.3	3	10	90	0.00	30.125 
09:25	48.5	48.5	48.5	65	37.3	3	10	90	0.00	30.125 
09:30	48.5	48.5	48.5	65	37.3	2	7	112	0.00	30.127 
09:35	48.6	48.6	48.6	65	37.4	3	11	112	0.00	30.127 
09:40	48.6	48.6	48.6	65	37.4	3	12	90	0.00	30.127 
09:45	48.6	48.6	48.6	65	37.4	3	13	112	0.00	30.132 
09:50	48.6	48.6	48.6	66	37.8	3	12	90	0.00	30.132 
09:55	48.5	47.1	48.5	65	37.3	4	11	90	0.00	30.132 
10:00	48.5	48.5	48.5	65	37.3	3	6	112	0.00	30.132 
10:05	48.5	48.5	48.5	65	37.3	3	9	90	0.00	30.132 
10:10	48.5	47.1	48.5	66	37.7	4	13	90	0.00	30.132 
10:15	48.5	48.5	48.5	66	37.7	2	6	90	0.00	30.124 
10:20	48.6	48.6	48.6	66	37.8	2	5	90	0.00	30.124 
10:25	48.6	48.6	48.6	66	37.8	2	9	68	0.00	30.124 
10:30	48.6	46.6	48.6	67	38.1	5	14	112	0.00	30.121 
10:35	48.5	48.5	48.5	68	38.4	2	12	90	0.00	30.121 
10:40	48.5	48.5	48.5	70	39.2	3	12	90	0.00	30.121 
10:45	48.3	48.3	48.3	71	39.3	3	12	90	0.00	30.119 
10:50	48.2	48.2	48.2	73	40.0	3	9	90	0.00	30.119 
10:55	48.0	48.0	48.0	73	39.8	3	10	90	0.00	30.119 
11:00	48.0	48.0	48.0	73	39.8	3	13	90	0.00	30.111 
11:05	48.2	48.2	48.2	73	40.0	2	9	90	0.00	30.111 
11:10	48.2	48.2	48.2	73	40.0	3	12	90	0.00	30.111 
11:15	48.3	48.3	48.3	72	39.7	2	9	90	0.00	30.104 
11:20	48.2	48.2	48.2	73	40.0	3	9	112	0.00	30.104 
11:25	48.2	48.2	48.2	72	39.6	2	9	90	0.00	30.104 
11:30	48.2	48.2	48.2	73	40.0	2	7	90	0.00	30.116 
11:35	48.2	46.8	48.2	72	39.6	4	11	90	0.00	30.116 
11:40	48.0	48.0	48.0	73	39.8	2	7	90	0.00	30.116 
11:45	48.2	48.2	48.2	74	40.3	2	8	90	0.00	30.115 
11:50	48.0	45.9	48.0	75	40.5	5	14	90	0.00	30.115 
11:55	48.0	48.0	48.0	76	40.8	3	11	90	0.00	30.115 
12:00	47.9	47.9	47.9	77	41.0	3	15	68	0.00	30.116 
12:05	47.7	47.7	47.7	78	41.2	3	10	90	0.00	30.116 
12:10	47.4	47.4	47.4	80	41.5	3	11	68	0.00	30.116 
12:15	47.4	45.9	47.4	81	41.9	4	10	112	0.00	30.108 
12:20	47.3	45.8	47.3	81	41.8	4	11	112	0.00	30.108 
12:25	47.1	47.1	47.1	82	41.9	3	11	112	0.00	30.108 
12:30	47.0	47.0	47.0	83	42.1	2	9	90	0.00	30.116 
12:35	46.8	46.8	46.8	83	41.9	2	11	68	0.00	30.116 
12:40	46.8	46.8	46.8	84	42.2	2	7	90	0.00	30.116 
12:45	46.8	46.8	46.8	84	42.2	2	11	90	0.00	30.118 
12:50	46.7	46.7	46.7	86	42.7	2	10	90	0.00	30.118 
12:55	46.5	46.5	46.5	87	42.8	1	5	90	0.00	30.118 
13:00	46.5	46.5	46.5	88	43.1	3	12	112	0.00	30.107 
13:05	46.5	46.5	46.5	88	43.1	3	7	90	0.00	30.107 
13:10	46.5	46.5	46.5	89	43.4	2	6	90	0.00	30.107 
13:15	46.5	46.5	46.5	89	43.4	2	8	68	0.00	30.108 
13:20	46.4	46.4	46.4	89	43.3	2	7	90	0.00	30.108 
13:25	46.2	46.2	46.2	89	43.1	2	10	90	0.00	30.108 
13:30	46.2	46.2	46.2	90	43.4	2	6	90	0.00	30.104 
13:35	46.1	46.1	46.1	90	43.3	2	9	68	0.00	30.104 
13:40	46.1	46.1	46.1	91	43.6	2	6	90	0.00	30.104 
13:45	46.0	46.0	46.0	91	43.5	2	9	68	0.00	30.089 
13:50	46.0	46.0	46.0	91	43.5	3	7	90	0.00	30.089 
13:55	45.8	45.8	45.8	91	43.3	2	7	90	0.00	30.089 
14:00	45.8	45.8	45.8	91	43.3	2	7	68	0.00	30.100 
14:05	45.7	45.7	45.7	91	43.2	2	9	90	0.00	30.100 
14:10	45.7	45.7	45.7	91	43.2	3	11	90	0.00	30.100 
14:15	45.7	45.7	45.7	91	43.2	3	7	90	0.00	30.102 
14:20	45.5	45.5	45.5	91	43.0	3	10	90	0.00	30.102 
14:25	45.5	45.5	45.5	92	43.3	2	5	90	0.00	30.102 
14:30	45.5	45.5	45.5	92	43.3	2	6	90	0.00	30.090 
14:35	45.7	45.7	45.7	92	43.5	2	6	90	0.00	30.090 
14:40	45.7	45.7	45.7	92	43.5	1	6	90	0.00	30.090 
14:45	45.7	45.7	45.7	92	43.5	2	11	112	0.00	30.089 
14:50	45.7	45.7	45.7	92	43.5	2	10	90	0.00	30.089 
14:55	45.8	45.8	45.8	92	43.6	2	7	90	0.00	30.089 
15:00	45.8	45.8	45.8	92	43.6	1	4	90	0.00	30.090 
15:05	45.8	45.8	45.8	92	43.6	1	6	68	0.00	30.090 
15:10	46.0	46.0	46.0	92	43.8	1	5	68	0.00	30.090 
15:15	46.0	46.0	46.0	92	43.8	2	7	90	0.00	30.092 
15:20	46.0	46.0	46.0	92	43.8	2	5	90	0.00	30.092 
15:25	46.0	46.0	46.0	92	43.8	1	4	90	0.00	30.092 
15:30	46.0	46.0	46.0	92	43.8	2	4	68	0.00	30.088 
15:35	46.1	46.1	46.1	93	44.2	2	6	90	0.00	30.088 
15:40	46.1	46.1	46.1	93	44.2	1	6	90	0.00	30.088 
15:45	46.1	46.1	46.1	93	44.2	2	6	112	0.00	30.080 
15:50	46.1	46.1	46.1	93	44.2	2	9	90	0.00	30.080 
15:55	46.1	46.1	46.1	93	44.2	1	6	90	0.00	30.080 
16:00	46.2	46.2	46.2	93	44.3	1	6	90	0.00	30.089 
16:05	46.4	46.4	46.4	93	44.5	0	3	112	0.00	30.089 
16:10	46.4	46.4	46.4	93	44.5	1	3	90	0.00	30.089 
16:15	46.5	46.5	46.5	93	44.6	1	7	90	0.00	30.073 
16:20	46.5	46.5	46.5	94	44.9	1	4	90	0.00	30.073 
16:25	46.5	46.5	46.5	94	44.9	1	6	90	0.00	30.073 
16:30	46.7	46.7	46.7	94	45.1	1	5	112	0.00	30.086 
16:35	46.7	46.7	46.7	94	45.1	1	4	68	0.00	30.086 
16:40	46.8	46.8	46.8	94	45.2	1	4	90	0.00	30.086 
16:45	47.0	47.0	47.0	94	45.4	0	5	90	0.00	30.083 
16:50	47.0	47.0	47.0	94	45.4	0	5	112	0.00	30.083 
16:55	47.1	47.1	47.1	94	45.5	0	2	90	0.00	30.083 
17:00	47.1	47.1	47.1	94	45.5	1	4	90	0.00	30.088 
17:05	47.3	47.3	47.3	94	45.7	1	3	90	0.00	30.088 
17:10	47.3	47.3	47.3	94	45.7	1	4	90	0.01	30.088 
17:15	47.4	47.4	47.4	94	45.8	0	3	90	0.00	30.104 
17:20	47.6	47.6	47.6	94	46.0	0	2	90	0.00	30.104 
17:25	47.6	47.6	47.6	94	46.0	1	5	112	0.00	30.104 
17:30	47.7	47.7	47.7	94	46.1	1	4	112	0.00	30.091 
17:35	47.7	47.7	47.7	94	46.1	1	5	90	0.00	30.091 
17:40	47.9	47.9	47.9	94	46.3	1	4	90	0.00	30.091 
17:45	47.9	47.9	47.9	95	46.5	1	6	90	0.00	30.095 
17:50	48.0	48.0	48.0	95	46.6	0	3	90	0.00	30.095 
17:55	48.0	48.0	48.0	95	46.6	0	3	90	0.00	30.095 
18:00	48.2	48.2	48.2	95	46.8	0	3	90	0.00	30.100 
18:05	48.2	48.2	48.2	95	46.8	0	2	90	0.00	30.100 
18:10	48.2	48.2	48.2	95	46.8	1	4	90	0.00	30.100 
18:15	48.3	48.3	48.3	95	46.9	1	4	68	0.00	30.092 
18:20	48.3	48.3	48.3	95	46.9	1	8	90	0.00	30.092 
18:25	48.5	48.5	48.5	95	47.1	1	4	135	0.00	30.092 
18:30	48.6	48.6	48.6	95	47.2	2	5	112	0.00	30.094 
18:35	48.8	48.8	48.8	95	47.4	1	6	112	0.01	30.094 
18:40	48.8	48.8	48.8	95	47.4	1	4	112	0.00	30.094 
18:45	48.8	48.8	48.8	95	47.4	1	7	112	0.00	30.095 
18:50	48.8	48.8	48.8	95	47.4	2	10	90	0.00	30.095 
18:55	48.6	48.6	48.6	95	47.2	2	9	90	0.00	30.095 
19:00	48.6	48.6	48.6	95	47.2	3	9	90	0.01	30.096 
19:05	48.6	48.6	48.6	95	47.2	1	6	112	0.00	30.096 
19:10	48.5	48.5	48.5	95	47.1	2	7	90	0.00	30.096 
19:15	48.5	48.5	48.5	95	47.1	1	5	90	0.00	30.102 
19:20	48.2	48.2	48.2	95	46.8	1	5	68	0.00	30.102 
19:25	48.2	48.2	48.2	95	46.8	1	9	112	0.00	30.102 
19:30	48.0	48.0	48.0	95	46.6	3	9	90	0.01	30.108 
19:35	47.9	47.9	47.9	95	46.5	2	6	68	0.00	30.108 
19:40	47.7	47.7	47.7	95	46.3	2	6	90	0.00	30.108 
19:45	47.6	47.6	47.6	95	46.2	2	5	112	0.00	30.107 
19:50	47.6	47.6	47.6	95	46.2	2	7	90	0.00	30.107 
19:55	47.4	47.4	47.4	95	46.0	2	9	90	0.00	30.107 
20:00	47.4	47.4	47.4	95	46.0	2	7	90	0.00	30.114 
20:05	47.4	47.4	47.4	95	46.0	1	6	90	0.00	30.114 
20:10	47.4	47.4	47.4	95	46.0	2	7	112	0.00	30.114 
20:15	47.4	47.4	47.4	95	46.0	2	12	90	0.00	30.116 
20:20	47.4	47.4	47.4	95	46.0	1	5	90	0.00	30.116 
20:25	47.4	47.4	47.4	95	46.0	2	7	90	0.00	30.116 
20:30	47.4	47.4	47.4	95	46.0	3	10	90	0.00	30.112 
20:35	47.4	47.4	47.4	95	46.0	2	5	112	0.00	30.112 
20:40	47.4	47.4	47.4	95	46.0	2	7	112	0.00	30.112 
20:45	47.4	47.4	47.4	95	46.0	1	5	68	0.00	30.117 
20:50	47.4	47.4	47.4	95	46.0	1	6	90	0.00	30.117 
20:55	47.4	47.4	47.4	95	46.0	2	7	112	0.00	30.117 
21:00	47.4	47.4	47.4	95	46.0	2	6	112	0.00	30.119 
21:05	47.4	47.4	47.4	95	46.0	1	7	112	0.00	30.119 
21:10	47.3	47.3	47.3	95	45.9	1	9	90	0.00	30.119 
21:15	47.4	47.4	47.4	95	46.0	1	5	90	0.00	30.117 
21:20	47.4	47.4	47.4	95	46.0	1	5	45	0.00	30.117 
21:25	47.4	47.4	47.4	95	46.0	1	5	90	0.00	30.117 
21:30	47.4	47.4	47.4	95	46.0	2	6	90	0.00	30.114 
21:35	47.4	47.4	47.4	95	46.0	1	6	90	0.00	30.114 
21:40	47.4	47.4	47.4	95	46.0	1	5	90	0.00	30.114 
21:45	47.4	47.4	47.4	95	46.0	1	3	112	0.00	30.120 
21:50	47.4	47.4	47.4	95	46.0	1	7	90	0.00	30.120 
21:55	47.4	47.4	47.4	95	46.0	1	5	90	0.00	30.120 
22:00	47.4	47.4	47.4	95	46.0	1	6	90	0.00	30.114 
22:05	47.4	47.4	47.4	95	46.0	1	5	68	0.00	30.114 
22:10	47.4	47.4	47.4	95	46.0	1	5	90	0.00	30.114 
22:15	47.4	47.4	47.4	95	46.0	2	5	90	0.00	30.119 
22:20	47.6	47.6	47.6	95	46.2	2	6	90	0.00	30.119 
22:25	47.6	47.6	47.6	95	46.2	1	3	90	0.00	30.119 
22:30	47.6	47.6	47.6	95	46.2	1	6	90	0.00	30.118 
22:35	47.6	47.6	47.6	95	46.2	1	4	90	0.00	30.118 
22:40	47.6	47.6	47.6	95	46.2	0	4	90	0.00	30.118 
22:45	47.7	47.7	47.7	95	46.3	2	7	112	0.00	30.119 
22:50	47.7	47.7	47.7	95	46.3	2	6	68	0.00	30.119 
22:55	47.7	47.7	47.7	95	46.3	1	5	90	0.00	30.119 
23:00	47.7	47.7	47.7	95	46.3	1	5	90	0.00	30.118 
23:05	47.7	47.7	47.7	95	46.3	1	4	90	0.00	30.118 
23:10	47.7	47.7	47.7	95	46.3	2	4	90	0.00	30.118 
23:15	47.7	47.7	47.7	95	46.3	1	5	90	0.00	30.118 
23:20	47.7	47.7	47.7	95	46.3	1	4	112	0.00	30.118 
23:25	47.9	47.9	47.9	95	46.5	0	3	112	0.00	30.118 
23:30	47.9	47.9	47.9	95	46.5	0	3	112	0.00	30.120 
23:35	47.9	47.9	47.9	95	46.5	1	4	112	0.00	30.120 
23:40	47.9	47.9	47.9	95	46.5	1	5	90	0.00	30.120 
23:45	47.9	47.9	47.9	95	46.5	1	6	90	0.00	30.115 
23:50	48.0	48.0	48.0	95	46.6	1	4	90	0.00	30.115 
23:55	48.0	48.0	48.0	95	46.6	1	3	90	0.00	30.115 

CoCoRaHS
IN-AL-39
A2 Web Hosting
Creative Commons License
GoDaddy
search engine by freefind advanced

loaded 2018-11-19 19:34:50 • last modified 2010-11-18 10:43:29
Privacy PolicyDisclaimer
• wx.awcolley.com is powered by PmWiki v.2002016 •
• all content (unless otherwise noted) © 2018 A W Colley